createdAt,value
2023-04-02T00:00:56.000Z,89.7
2023-04-02T00:02:12.000Z,89.5
2023-04-02T00:03:28.000Z,89.3
2023-04-02T00:04:44.000Z,89.8
2023-04-02T00:06:01.000Z,89.5
2023-04-02T00:07:17.000Z,89.1
2023-04-02T00:08:33.000Z,88.8
2023-04-02T00:09:49.000Z,89.3
2023-04-02T00:11:04.000Z,89.3
2023-04-02T00:12:21.000Z,89.6
2023-04-02T00:13:37.000Z,88.8
2023-04-02T00:14:53.000Z,89.2
2023-04-02T00:16:09.000Z,89.5
2023-04-02T00:17:25.000Z,88.9
2023-04-02T00:18:41.000Z,88.8
2023-04-02T00:19:58.000Z,89.3
2023-04-02T00:21:14.000Z,89.3
2023-04-02T00:22:30.000Z,89.2
2023-04-02T00:23:46.000Z,88.8
2023-04-02T00:25:02.000Z,88.5
2023-04-02T00:26:19.000Z,88.9
2023-04-02T00:27:35.000Z,88.7
2023-04-02T00:28:50.000Z,88.4
2023-04-02T00:30:06.000Z,88
2023-04-02T00:31:22.000Z,88.5
2023-04-02T00:32:39.000Z,88.3
2023-04-02T00:33:55.000Z,88.1
2023-04-02T00:35:11.000Z,87.9
2023-04-02T00:36:27.000Z,87.9
2023-04-02T00:37:43.000Z,88.3
2023-04-02T00:39:00.000Z,88.6
2023-04-02T00:40:16.000Z,89.1
2023-04-02T00:41:32.000Z,89.2
2023-04-02T00:42:48.000Z,89
2023-04-02T00:44:04.000Z,89.2
2023-04-02T00:45:20.000Z,89.3
2023-04-02T00:46:36.000Z,89.6
2023-04-02T00:47:52.000Z,89
2023-04-02T00:49:08.000Z,88.5
2023-04-02T00:50:24.000Z,89.1
2023-04-02T00:51:40.000Z,88.1
2023-04-02T00:52:57.000Z,87.8
2023-04-02T00:54:13.000Z,87
2023-04-02T00:55:29.000Z,88.5
2023-04-02T00:56:45.000Z,88.8
2023-04-02T00:58:01.000Z,87.6
2023-04-02T00:59:18.000Z,87.8
2023-04-02T01:00:34.000Z,88.6
2023-04-02T01:01:49.000Z,88.2
2023-04-02T01:03:05.000Z,88.3
2023-04-02T01:04:21.000Z,89
2023-04-02T01:05:38.000Z,88.2
2023-04-02T01:06:54.000Z,88
2023-04-02T01:08:10.000Z,88
2023-04-02T01:09:26.000Z,89
2023-04-02T01:10:42.000Z,88.7
2023-04-02T01:11:59.000Z,88.8
2023-04-02T01:13:15.000Z,89.4
2023-04-02T01:14:31.000Z,89.8
2023-04-02T01:15:47.000Z,89.9
2023-04-02T01:17:03.000Z,89.3
2023-04-02T01:18:19.000Z,89.3
2023-04-02T01:19:35.000Z,89
2023-04-02T01:20:51.000Z,88.9
2023-04-02T01:22:07.000Z,88.8
2023-04-02T01:23:23.000Z,88.9
2023-04-02T01:24:39.000Z,89
2023-04-02T01:25:56.000Z,89.1
2023-04-02T01:27:12.000Z,88.7
2023-04-02T01:28:28.000Z,88.2
2023-04-02T01:29:44.000Z,89.5
2023-04-02T01:31:00.000Z,89.9
2023-04-02T01:32:17.000Z,89.9
2023-04-02T01:33:33.000Z,89.6
2023-04-02T01:34:48.000Z,89.9
2023-04-02T01:36:04.000Z,90.6
2023-04-02T01:37:20.000Z,91.2
2023-04-02T01:38:37.000Z,90.6
2023-04-02T01:39:53.000Z,90.8
2023-04-02T01:41:09.000Z,90.6
2023-04-02T01:42:25.000Z,90.3
2023-04-02T01:43:41.000Z,90.2
2023-04-02T01:44:58.000Z,89.9
2023-04-02T01:46:14.000Z,89.3
2023-04-02T01:47:30.000Z,88.9
2023-04-02T01:48:46.000Z,89.6
2023-04-02T01:50:02.000Z,89.9
2023-04-02T01:51:17.000Z,90.6
2023-04-02T01:52:34.000Z,91.2
2023-04-02T01:53:50.000Z,90.9
2023-04-02T01:55:06.000Z,91.1
2023-04-02T01:56:22.000Z,91.2
2023-04-02T01:57:38.000Z,91.1
2023-04-02T01:58:55.000Z,90.5
2023-04-02T02:00:11.000Z,90.7
2023-04-02T02:01:27.000Z,90.6
2023-04-02T02:02:43.000Z,90
2023-04-02T02:03:59.000Z,90
2023-04-02T02:05:16.000Z,89.8
2023-04-02T02:06:32.000Z,90.1
2023-04-02T02:07:47.000Z,89.6
2023-04-02T02:09:03.000Z,89.7
2023-04-02T02:10:19.000Z,89.7
2023-04-02T02:11:36.000Z,89.2
2023-04-02T02:12:52.000Z,89.7
2023-04-02T02:14:08.000Z,89.4
2023-04-02T02:15:24.000Z,89.4
2023-04-02T02:16:40.000Z,89.8
2023-04-02T02:17:56.000Z,89.4
2023-04-02T02:19:13.000Z,89.3
2023-04-02T02:20:29.000Z,89.5
2023-04-02T02:21:45.000Z,89.4
2023-04-02T02:23:01.000Z,89.3
2023-04-02T02:24:16.000Z,89.4
2023-04-02T02:25:33.000Z,89.7
2023-04-02T02:26:49.000Z,90.1
2023-04-02T02:28:05.000Z,89.8
2023-04-02T02:29:21.000Z,89.4
2023-04-02T02:30:37.000Z,88.7
2023-04-02T02:31:54.000Z,89
2023-04-02T02:33:10.000Z,89.4
2023-04-02T02:34:26.000Z,89.5
2023-04-02T02:35:42.000Z,89.5
2023-04-02T02:36:58.000Z,89.3
2023-04-02T02:38:15.000Z,89.7
2023-04-02T02:39:31.000Z,90.2
2023-04-02T02:40:46.000Z,89.8
2023-04-02T02:42:02.000Z,90.5
2023-04-02T02:43:18.000Z,90.7
2023-04-02T02:44:34.000Z,90.7
2023-04-02T02:45:51.000Z,91.1
2023-04-02T02:47:07.000Z,91.4
2023-04-02T02:48:23.000Z,90.2
2023-04-02T02:49:39.000Z,89.4
2023-04-02T02:50:55.000Z,89.7
2023-04-02T02:52:12.000Z,89.9
2023-04-02T02:53:28.000Z,90.7
2023-04-02T02:54:44.000Z,90.5
2023-04-02T02:56:00.000Z,89.4
2023-04-02T02:57:15.000Z,89.9
2023-04-02T02:58:32.000Z,90.1
2023-04-02T02:59:48.000Z,89.7
2023-04-02T03:01:04.000Z,89.1
2023-04-02T03:02:20.000Z,88.9
2023-04-02T03:03:36.000Z,89.2
2023-04-02T03:04:53.000Z,89.3
2023-04-02T03:06:09.000Z,89.5
2023-04-02T03:07:25.000Z,89.5
2023-04-02T03:08:41.000Z,89.2
2023-04-02T03:09:57.000Z,89.5
2023-04-02T03:11:13.000Z,89.5
2023-04-02T03:12:30.000Z,88.9
2023-04-02T03:13:45.000Z,88.4
2023-04-02T03:15:01.000Z,88.7
2023-04-02T03:16:17.000Z,89.3
2023-04-02T03:17:33.000Z,89.2
2023-04-02T03:18:50.000Z,89.3
2023-04-02T03:20:06.000Z,89.3
2023-04-02T03:21:22.000Z,88.9
2023-04-02T03:22:38.000Z,88.6
2023-04-02T03:23:54.000Z,88.4
2023-04-02T03:25:11.000Z,88.8
2023-04-02T03:26:27.000Z,88.6
2023-04-02T03:27:43.000Z,88.4
2023-04-02T03:28:59.000Z,88.1
2023-04-02T03:30:14.000Z,88.3
2023-04-02T03:31:31.000Z,87.8
2023-04-02T03:32:47.000Z,88.3
2023-04-02T03:34:03.000Z,87.2
2023-04-02T03:35:19.000Z,88
2023-04-02T03:36:35.000Z,88.4
2023-04-02T03:37:51.000Z,88.2
2023-04-02T03:39:08.000Z,87.4
2023-04-02T03:40:24.000Z,86.8
2023-04-02T03:41:40.000Z,87.6
2023-04-02T03:42:56.000Z,88
2023-04-02T03:44:12.000Z,88.2
2023-04-02T03:45:29.000Z,88.1
2023-04-02T03:46:44.000Z,87.9
2023-04-02T03:48:00.000Z,87.8
2023-04-02T03:49:16.000Z,87.8
2023-04-02T03:50:32.000Z,88
2023-04-02T03:51:48.000Z,88.1
2023-04-02T03:53:04.000Z,87.5
2023-04-02T03:54:20.000Z,86.8
2023-04-02T03:55:36.000Z,87.1
2023-04-02T03:56:52.000Z,87.6
2023-04-02T03:58:09.000Z,87.6
2023-04-02T03:59:25.000Z,87.5
2023-04-02T04:00:41.000Z,86.5
2023-04-02T04:01:57.000Z,86.5
2023-04-02T04:03:13.000Z,87.1
2023-04-02T04:04:30.000Z,87.8
2023-04-02T04:05:46.000Z,87.6
2023-04-02T04:07:02.000Z,86.6
2023-04-02T04:08:17.000Z,86.8
2023-04-02T04:09:33.000Z,86.7
2023-04-02T04:10:49.000Z,86.7
2023-04-02T04:12:06.000Z,86.2
2023-04-02T04:13:22.000Z,86.2
2023-04-02T04:14:38.000Z,85.8
2023-04-02T04:15:54.000Z,86.3
2023-04-02T04:17:10.000Z,85.7
2023-04-02T04:18:27.000Z,85.7
2023-04-02T04:19:43.000Z,84.5
2023-04-02T04:20:59.000Z,84.9
2023-04-02T04:22:15.000Z,86.1
2023-04-02T04:23:31.000Z,84.9
2023-04-02T04:24:47.000Z,84.7
2023-04-02T04:26:03.000Z,84.5
2023-04-02T04:27:19.000Z,84.5
2023-04-02T04:28:35.000Z,84.7
2023-04-02T04:29:51.000Z,84.6
2023-04-02T04:31:08.000Z,84
2023-04-02T04:32:24.000Z,84.3
2023-04-02T04:33:40.000Z,84.5
2023-04-02T04:34:56.000Z,84.7
2023-04-02T04:36:12.000Z,84.8
2023-04-02T04:37:28.000Z,84.3
2023-04-02T04:38:45.000Z,84.4
2023-04-02T04:40:01.000Z,84.7
2023-04-02T04:41:16.000Z,85.2
2023-04-02T04:42:32.000Z,86.1
2023-04-02T04:43:48.000Z,85.6
2023-04-02T04:45:05.000Z,85.3
2023-04-02T04:46:21.000Z,85.3
2023-04-02T04:47:37.000Z,86.1
2023-04-02T04:48:53.000Z,86.2
2023-04-02T04:50:09.000Z,85.8
2023-04-02T04:51:26.000Z,85.8
2023-04-02T04:52:42.000Z,85.4
2023-04-02T04:53:58.000Z,85.2
2023-04-02T04:55:14.000Z,85.1
2023-04-02T04:56:30.000Z,84.9
2023-04-02T04:57:46.000Z,85.5
2023-04-02T04:59:02.000Z,86
2023-04-02T05:00:18.000Z,85.9
2023-04-02T05:01:34.000Z,85.4
2023-04-02T05:02:50.000Z,85.1
2023-04-02T05:04:06.000Z,85.5
2023-04-02T05:05:23.000Z,85.4
2023-04-02T05:06:39.000Z,85.2
2023-04-02T05:07:55.000Z,85.2
2023-04-02T05:09:11.000Z,85.2
2023-04-02T05:10:27.000Z,85.8
2023-04-02T05:11:44.000Z,85.8
2023-04-02T05:13:00.000Z,85
2023-04-02T05:14:15.000Z,85
2023-04-02T05:15:31.000Z,85.1
2023-04-02T05:16:47.000Z,85.1
2023-04-02T05:18:04.000Z,85.8
2023-04-02T05:19:20.000Z,85.4
2023-04-02T05:20:36.000Z,85.6
2023-04-02T05:21:52.000Z,85.4
2023-04-02T05:23:08.000Z,84.8
2023-04-02T05:24:25.000Z,85.2
2023-04-02T05:25:41.000Z,85.6
2023-04-02T05:26:57.000Z,85
2023-04-02T05:28:13.000Z,85.3
2023-04-02T05:29:29.000Z,85.7
2023-04-02T05:30:45.000Z,85.9
2023-04-02T05:32:01.000Z,85.4
2023-04-02T05:33:17.000Z,84.4
2023-04-02T05:34:33.000Z,84
2023-04-02T05:35:49.000Z,83.8
2023-04-02T05:37:05.000Z,84.2
2023-04-02T05:38:22.000Z,84.4
2023-04-02T05:39:38.000Z,83.8
2023-04-02T05:40:54.000Z,83.8
2023-04-02T05:42:10.000Z,83.9
2023-04-02T05:43:26.000Z,83.6
2023-04-02T05:44:43.000Z,84.1
2023-04-02T05:45:59.000Z,83.7
2023-04-02T05:47:14.000Z,83.8
2023-04-02T05:48:30.000Z,83.7
2023-04-02T05:49:46.000Z,83.9
2023-04-02T05:51:03.000Z,83.7
2023-04-02T05:52:19.000Z,84.1
2023-04-02T05:53:35.000Z,83.7
2023-04-02T05:54:51.000Z,83.7
2023-04-02T05:56:07.000Z,83.5
2023-04-02T05:57:23.000Z,82.7
2023-04-02T05:58:40.000Z,83
2023-04-02T05:59:56.000Z,83
2023-04-02T06:01:12.000Z,83
2023-04-02T06:02:28.000Z,83.1
2023-04-02T06:03:43.000Z,83.1
2023-04-02T06:05:00.000Z,82.6
2023-04-02T06:06:16.000Z,83.3
2023-04-02T06:07:32.000Z,83.5
2023-04-02T06:08:48.000Z,82.7
2023-04-02T06:10:04.000Z,82.4
2023-04-02T06:11:21.000Z,82.4
2023-04-02T06:12:37.000Z,82.5
2023-04-02T06:13:53.000Z,82.2
2023-04-02T06:15:09.000Z,82.2
2023-04-02T06:16:25.000Z,82.2
2023-04-02T06:17:42.000Z,82.1
2023-04-02T06:18:58.000Z,81.5
2023-04-02T06:20:13.000Z,82
2023-04-02T06:21:29.000Z,81.8
2023-04-02T06:22:45.000Z,82.4
2023-04-02T06:24:02.000Z,82.5
2023-04-02T06:25:18.000Z,82
2023-04-02T06:26:34.000Z,81.1
2023-04-02T06:27:50.000Z,81.5
2023-04-02T06:29:06.000Z,81.6
2023-04-02T06:30:22.000Z,81.5
2023-04-02T06:31:39.000Z,81.3
2023-04-02T06:32:55.000Z,81
2023-04-02T06:34:11.000Z,81.2
2023-04-02T06:35:27.000Z,81.2
2023-04-02T06:36:42.000Z,81.5
2023-04-02T06:37:59.000Z,81.8
2023-04-02T06:39:15.000Z,81.6
2023-04-02T06:40:31.000Z,81.1
2023-04-02T06:41:47.000Z,80.4
2023-04-02T06:43:03.000Z,79.4
2023-04-02T06:44:20.000Z,80.5
2023-04-02T06:45:36.000Z,80.2
2023-04-02T06:46:52.000Z,80.2
2023-04-02T06:48:08.000Z,80.7
2023-04-02T06:49:24.000Z,81
2023-04-02T06:50:41.000Z,81
2023-04-02T06:51:57.000Z,80.9
2023-04-02T06:53:12.000Z,80.8
2023-04-02T06:54:28.000Z,80.2
2023-04-02T06:55:44.000Z,79.9
2023-04-02T06:57:00.000Z,80
2023-04-02T06:58:17.000Z,80.7
2023-04-02T06:59:33.000Z,80.4
2023-04-02T07:00:49.000Z,80.6
2023-04-02T07:02:05.000Z,80.7
2023-04-02T07:03:21.000Z,80.9
2023-04-02T07:04:38.000Z,81.1
2023-04-02T07:05:54.000Z,81.5
2023-04-02T07:07:10.000Z,81.2
2023-04-02T07:08:26.000Z,81
2023-04-02T07:09:41.000Z,80.6
2023-04-02T07:10:58.000Z,79.8
2023-04-02T07:12:14.000Z,79.4
2023-04-02T07:13:30.000Z,79.6
2023-04-02T07:14:46.000Z,80.3
2023-04-02T07:16:02.000Z,80
2023-04-02T07:17:19.000Z,78.8
2023-04-02T07:18:35.000Z,79.4
2023-04-02T07:19:51.000Z,79.9
2023-04-02T07:21:07.000Z,80.4
2023-04-02T07:22:23.000Z,80.1
2023-04-02T07:23:39.000Z,79.1
2023-04-02T07:24:56.000Z,78.7
2023-04-02T07:26:11.000Z,78.6
2023-04-02T07:27:27.000Z,79.1
2023-04-02T07:28:43.000Z,78.6
2023-04-02T07:29:59.000Z,78.3
2023-04-02T07:31:16.015Z,77.5
2023-04-02T07:32:32.000Z,78.2
2023-04-02T07:33:48.000Z,78.9
2023-04-02T07:35:04.000Z,79
2023-04-02T07:36:20.000Z,77.9
2023-04-02T07:37:37.000Z,78.7
2023-04-02T07:38:53.000Z,78.8
2023-04-02T07:40:09.000Z,78.4
2023-04-02T07:41:25.000Z,78.9
2023-04-02T07:42:40.000Z,78.6
2023-04-02T07:43:57.000Z,79.4
2023-04-02T07:45:13.000Z,79.7
2023-04-02T07:46:29.000Z,79.7
2023-04-02T07:47:45.000Z,79.9
2023-04-02T07:49:01.000Z,79.4
2023-04-02T07:50:17.000Z,79
2023-04-02T07:51:34.000Z,78
2023-04-02T07:52:50.000Z,78
2023-04-02T07:54:06.000Z,78.3
2023-04-02T07:55:22.000Z,77.9
2023-04-02T07:56:38.000Z,77.2
2023-04-02T07:57:55.000Z,77.2
2023-04-02T07:59:10.000Z,77.2
2023-04-02T08:00:26.000Z,76.9
2023-04-02T08:01:42.000Z,77.6
2023-04-02T08:02:58.000Z,77.1
2023-04-02T08:04:15.000Z,76.7
2023-04-02T08:05:31.000Z,76.1
2023-04-02T08:06:46.000Z,75.7
2023-04-02T08:08:02.000Z,75.1
2023-04-02T08:09:18.000Z,74.9
2023-04-02T08:10:35.000Z,76.4
2023-04-02T08:11:51.000Z,76.5
2023-04-02T08:13:07.000Z,77.1
2023-04-02T08:14:23.000Z,77.5
2023-04-02T08:15:39.000Z,76.4
2023-04-02T08:16:55.000Z,75.2
2023-04-02T08:18:12.000Z,75.4
2023-04-02T08:19:28.000Z,74.5
2023-04-02T08:20:44.000Z,75.7
2023-04-02T08:22:00.000Z,76.3
2023-04-02T08:23:15.000Z,77.2
2023-04-02T08:24:32.000Z,76.6
2023-04-02T08:25:48.000Z,76.9
2023-04-02T08:27:04.000Z,76.5
2023-04-02T08:28:20.000Z,77
2023-04-02T08:29:36.000Z,77.2
2023-04-02T08:30:53.000Z,76.9
2023-04-02T08:32:09.000Z,76.9
2023-04-02T08:33:25.000Z,77.3
2023-04-02T08:34:41.000Z,76.8
2023-04-02T08:35:57.000Z,77.2
2023-04-02T08:37:14.000Z,77.3
2023-04-02T08:38:30.000Z,77.5
2023-04-02T08:39:46.000Z,76.4
2023-04-02T08:41:02.000Z,75.9
2023-04-02T08:42:18.000Z,75.8
2023-04-02T08:43:35.000Z,74.8
2023-04-02T08:44:51.000Z,75
2023-04-02T08:46:07.000Z,75.6
2023-04-02T08:47:23.000Z,75.5
2023-04-02T08:48:39.000Z,75.1
2023-04-02T08:49:56.000Z,75
2023-04-02T08:51:12.000Z,73.9
2023-04-02T08:52:28.000Z,74.5
2023-04-02T08:53:44.000Z,74.4
2023-04-02T08:55:00.000Z,74.6
2023-04-02T08:56:16.000Z,74
2023-04-02T08:57:32.000Z,73.4
2023-04-02T08:58:48.000Z,73.6
2023-04-02T09:00:04.000Z,73.8
2023-04-02T09:01:20.000Z,73.2
2023-04-02T09:02:36.000Z,73.3
2023-04-02T09:03:53.000Z,73.2
2023-04-02T09:05:09.000Z,72.3
2023-04-02T09:06:25.000Z,73.6
2023-04-02T09:07:41.000Z,74.3
2023-04-02T09:08:57.000Z,73.7
2023-04-02T09:10:14.000Z,73.7
2023-04-02T09:11:30.000Z,73.7
2023-04-02T09:12:45.000Z,73.7
2023-04-02T09:14:01.000Z,72.7
2023-04-02T09:15:17.000Z,73.7
2023-04-02T09:16:34.000Z,73.7
2023-04-02T09:17:50.000Z,73
2023-04-02T09:19:06.000Z,72.8
2023-04-02T09:20:22.000Z,72.2
2023-04-02T09:21:38.000Z,71.3
2023-04-02T09:22:54.000Z,72.5
2023-04-02T09:24:11.000Z,72.6
2023-04-02T09:25:27.000Z,72.5
2023-04-02T09:26:43.000Z,71.7
2023-04-02T09:27:59.000Z,71.8
2023-04-02T09:29:14.000Z,71.4
2023-04-02T09:30:31.000Z,71.9
2023-04-02T09:31:47.000Z,71.8
2023-04-02T09:33:03.000Z,71.3
2023-04-02T09:34:19.000Z,70.7
2023-04-02T09:35:35.000Z,71.9
2023-04-02T09:36:52.000Z,71.2
2023-04-02T09:38:08.000Z,70.7
2023-04-02T09:39:24.000Z,70.1
2023-04-02T09:40:40.000Z,69.5
2023-04-02T09:41:56.000Z,69.6
2023-04-02T09:43:13.000Z,69.1
2023-04-02T09:44:29.000Z,69.8
2023-04-02T09:45:44.000Z,69.8
2023-04-02T09:47:00.000Z,69.4
2023-04-02T09:48:16.000Z,68.4
2023-04-02T09:49:33.000Z,69.3
2023-04-02T09:50:49.000Z,69.4
2023-04-02T09:52:05.000Z,68.8
2023-04-02T09:53:21.000Z,68.2
2023-04-02T09:54:37.000Z,67.3
2023-04-02T09:55:53.000Z,68
2023-04-02T09:57:10.000Z,68.4
2023-04-02T09:58:26.000Z,68.7
2023-04-02T09:59:42.000Z,67.6
2023-04-02T10:00:58.000Z,68.9
2023-04-02T10:02:13.000Z,68.5
2023-04-02T10:03:30.000Z,67.6
2023-04-02T10:04:46.000Z,67.7
2023-04-02T10:06:02.000Z,66.7
2023-04-02T10:08:34.000Z,64.5
2023-04-02T10:09:51.000Z,62.7
2023-04-02T10:11:07.000Z,61.2
2023-04-02T10:12:23.000Z,61.2
2023-04-02T10:13:39.000Z,61.1
2023-04-02T10:14:55.000Z,62.4
2023-04-02T10:16:11.000Z,63.3
2023-04-02T10:17:28.000Z,65.1
2023-04-02T10:18:43.000Z,63.9
2023-04-02T10:19:59.000Z,61.7
2023-04-02T10:21:15.000Z,62.5
2023-04-02T10:22:31.000Z,61.7
2023-04-02T10:23:48.000Z,64.2
2023-04-02T10:25:04.000Z,65.7
2023-04-02T10:26:20.000Z,66
2023-04-02T10:27:36.000Z,64.9
2023-04-02T10:28:52.000Z,64.6
2023-04-02T10:30:09.000Z,64.1
2023-04-02T10:31:25.000Z,63.8
2023-04-02T10:32:41.000Z,64.2
2023-04-02T10:33:57.000Z,64.4
2023-04-02T10:35:12.000Z,65.3
2023-04-02T10:36:29.000Z,64.7
2023-04-02T10:37:45.000Z,65.6
2023-04-02T10:39:01.000Z,66.3
2023-04-02T10:40:17.000Z,64.5
2023-04-02T10:41:33.000Z,64.1
2023-04-02T10:42:49.000Z,65.4
2023-04-02T10:44:06.000Z,64.9
2023-04-02T10:45:22.000Z,64.3
2023-04-02T10:46:38.000Z,63.9
2023-04-02T10:47:54.000Z,65.4
2023-04-02T10:49:10.000Z,65.5
2023-04-02T10:50:27.000Z,65.4
2023-04-02T10:51:42.000Z,65.1
2023-04-02T10:52:58.000Z,65
2023-04-02T10:54:14.000Z,64.9
2023-04-02T10:55:30.000Z,64.9
2023-04-02T10:56:47.000Z,64.8
2023-04-02T10:58:03.000Z,63.6
2023-04-02T10:59:19.000Z,61.7
2023-04-02T11:00:35.000Z,62.9
2023-04-02T11:01:51.000Z,61.8
2023-04-02T11:03:08.000Z,60.5
2023-04-02T11:04:24.000Z,60.4
2023-04-02T11:05:40.000Z,59.7
2023-04-02T11:06:56.000Z,59.4
2023-04-02T11:08:11.000Z,58.1
2023-04-02T11:09:28.000Z,59.5
2023-04-02T11:10:44.000Z,59
2023-04-02T11:12:00.000Z,55.8
2023-04-02T11:13:16.000Z,56.1
2023-04-02T11:14:32.000Z,54.6
2023-04-02T11:15:48.000Z,54.3
2023-04-02T11:17:05.000Z,51.5
2023-04-02T11:18:21.000Z,52.2
2023-04-02T11:19:37.000Z,51.9
2023-04-02T11:20:53.000Z,51.6
2023-04-02T11:22:09.000Z,52.3
2023-04-02T11:23:26.000Z,51.8
2023-04-02T11:24:41.000Z,51.1
2023-04-02T11:25:57.000Z,49.1
2023-04-02T11:27:13.000Z,47.1
2023-04-02T11:28:29.000Z,47
2023-04-02T11:29:46.000Z,46.6
2023-04-02T11:31:02.000Z,47
2023-04-02T11:32:18.000Z,49
2023-04-02T11:33:34.000Z,53.5
2023-04-02T11:34:50.000Z,56.9
2023-04-02T11:36:07.000Z,57
2023-04-02T11:37:23.000Z,57.7
2023-04-02T11:38:39.000Z,60.6
2023-04-02T11:39:55.000Z,61.2
2023-04-02T11:41:10.000Z,60.5
2023-04-02T11:42:26.000Z,59.9
2023-04-02T11:43:43.000Z,60.5
2023-04-02T11:44:59.000Z,59.9
2023-04-02T11:46:15.000Z,58.8
2023-04-02T11:47:31.000Z,58
2023-04-02T11:48:47.000Z,57.8
2023-04-02T11:50:04.000Z,58.2
2023-04-02T11:51:20.000Z,59.6
2023-04-02T11:52:36.000Z,60.4
2023-04-02T11:53:52.000Z,59.9
2023-04-02T11:55:08.000Z,59.9
2023-04-02T11:56:25.000Z,58.1
2023-04-02T11:57:40.000Z,59.5
2023-04-02T11:58:56.000Z,59.5
2023-04-02T12:00:12.000Z,59.7
2023-04-02T12:01:28.000Z,58.5
2023-04-02T12:02:45.000Z,57.1
2023-04-02T12:04:01.000Z,56.9
2023-04-02T12:05:17.000Z,57.5
2023-04-02T12:06:33.000Z,58.7
2023-04-02T12:07:49.000Z,60
2023-04-02T12:09:05.000Z,60.1
2023-04-02T12:10:22.000Z,59.7
2023-04-02T12:11:38.000Z,59.4
2023-04-02T12:12:54.000Z,60
2023-04-02T12:14:09.000Z,58.7
2023-04-02T12:15:25.000Z,59.7
2023-04-02T12:16:42.000Z,59.5
2023-04-02T12:17:58.000Z,61
2023-04-02T12:19:14.000Z,60
2023-04-02T12:20:30.000Z,59.2
2023-04-02T12:21:45.000Z,59.6
2023-04-02T12:23:02.000Z,59.3
2023-04-02T12:24:18.000Z,60
2023-04-02T12:25:34.000Z,60.3
2023-04-02T12:26:50.000Z,60.5
2023-04-02T12:28:06.000Z,61.1
2023-04-02T12:29:23.000Z,61.3
2023-04-02T12:30:39.000Z,60.9
2023-04-02T12:31:55.000Z,60.2
2023-04-02T12:33:11.000Z,60.5
2023-04-02T12:34:27.000Z,61.9
2023-04-02T12:35:44.000Z,61.5
2023-04-02T12:37:00.000Z,61.2
2023-04-02T12:38:15.000Z,60.5
2023-04-02T12:39:31.000Z,58.7
2023-04-02T12:40:47.000Z,58.7
2023-04-02T12:42:03.000Z,56.7
2023-04-02T12:43:20.000Z,55.7
2023-04-02T12:44:36.000Z,52.6
2023-04-02T12:45:52.000Z,50.8
2023-04-02T12:47:08.000Z,49.2
2023-04-02T12:48:24.000Z,51.2
2023-04-02T12:49:41.000Z,53.2
2023-04-02T12:50:57.000Z,54
2023-04-02T12:52:13.000Z,56.5
2023-04-02T12:53:29.000Z,55.5
2023-04-02T12:54:44.000Z,53.8
2023-04-02T12:56:01.000Z,54
2023-04-02T12:57:17.000Z,52.1
2023-04-02T12:58:33.000Z,50.5
2023-04-02T12:59:49.000Z,49.1
2023-04-02T13:01:05.000Z,49
2023-04-02T13:02:22.000Z,51.9
2023-04-02T13:03:38.000Z,54.6
2023-04-02T13:04:54.000Z,54.9
2023-04-02T13:06:10.000Z,57.1
2023-04-02T13:07:26.000Z,56.1
2023-04-02T13:08:42.000Z,53.2
2023-04-02T13:09:59.000Z,53.3
2023-04-02T13:11:14.000Z,54
2023-04-02T13:12:30.000Z,52
2023-04-02T13:13:46.000Z,50.1
2023-04-02T13:15:02.000Z,49.9
2023-04-02T13:16:19.000Z,48.4
2023-04-02T13:17:35.000Z,50
2023-04-02T13:18:51.000Z,50.9
2023-04-02T13:20:07.000Z,52.9
2023-04-02T13:21:23.000Z,52.3
2023-04-02T13:22:40.000Z,52.5
2023-04-02T13:23:56.000Z,54.3
2023-04-02T13:25:12.000Z,57.8
2023-04-02T13:26:28.000Z,58.2
2023-04-02T13:27:43.000Z,58.8
2023-04-02T13:29:00.000Z,58.6
2023-04-02T13:30:16.000Z,58
2023-04-02T13:31:32.000Z,60
2023-04-02T13:32:48.000Z,60.2
2023-04-02T13:34:04.000Z,60.2
2023-04-02T13:35:21.000Z,58.8
2023-04-02T13:36:37.000Z,58.4
2023-04-02T13:37:53.000Z,57.4
2023-04-02T13:39:09.000Z,56
2023-04-02T13:40:25.000Z,55.3
2023-04-02T13:41:41.000Z,53.7
2023-04-02T13:42:58.000Z,54.3
2023-04-02T13:44:13.000Z,56.6
2023-04-02T13:45:29.000Z,55.7
2023-04-02T13:46:45.000Z,56.1
2023-04-02T13:48:01.000Z,57.9
2023-04-02T13:49:18.000Z,58.7
2023-04-02T13:50:34.000Z,57.6
2023-04-02T13:51:50.000Z,55.6
2023-04-02T13:53:06.000Z,54.5
2023-04-02T13:54:22.000Z,55.3
2023-04-02T13:55:39.000Z,55.1
2023-04-02T13:56:55.000Z,54.6
2023-04-02T13:58:11.000Z,53.6
2023-04-02T13:59:27.000Z,52
2023-04-02T14:00:42.000Z,52
2023-04-02T14:01:59.000Z,50.6
2023-04-02T14:03:15.000Z,50.2
2023-04-02T14:04:31.000Z,53.1
2023-04-02T14:05:47.000Z,55
2023-04-02T14:07:03.000Z,56.1
2023-04-02T14:08:19.000Z,56.4
2023-04-02T14:09:36.000Z,56.7
2023-04-02T14:10:52.000Z,58.6
2023-04-02T14:12:08.000Z,58.9
2023-04-02T14:13:24.000Z,59
2023-04-02T14:14:40.000Z,57.3
2023-04-02T14:15:57.000Z,54.6
2023-04-02T14:17:12.000Z,52.6
2023-04-02T14:18:28.000Z,53.5
2023-04-02T14:19:44.000Z,53.7
2023-04-02T14:21:00.000Z,54.3
2023-04-02T14:22:17.000Z,56.4
2023-04-02T14:23:33.000Z,57.3
2023-04-02T14:24:49.000Z,57.9
2023-04-02T14:26:05.000Z,56.7
2023-04-02T14:27:21.000Z,57.1
2023-04-02T14:28:38.000Z,56.4
2023-04-02T14:29:54.000Z,55.6
2023-04-02T14:31:10.000Z,52.6
2023-04-02T14:32:26.000Z,52.2
2023-04-02T14:33:41.000Z,50
2023-04-02T14:34:58.000Z,48.5
2023-04-02T14:36:14.000Z,47.9
2023-04-02T14:37:30.000Z,48.1
2023-04-02T14:38:46.000Z,51
2023-04-02T14:40:02.000Z,51.4
2023-04-02T14:41:18.000Z,50.3
2023-04-02T14:42:35.000Z,49.2
2023-04-02T14:43:51.000Z,46.9
2023-04-02T14:45:07.000Z,46.2
2023-04-02T14:46:23.000Z,45
2023-04-02T14:47:39.000Z,46.5
2023-04-02T14:48:56.000Z,49.2
2023-04-02T14:50:11.000Z,50.6
2023-04-02T14:51:27.000Z,49.9
2023-04-02T14:52:43.000Z,51.1
2023-04-02T14:53:59.000Z,51.9
2023-04-02T14:55:16.000Z,51.6
2023-04-02T14:56:32.000Z,50.3
2023-04-02T14:57:48.000Z,48.4
2023-04-02T14:59:04.000Z,47.3
2023-04-02T15:00:20.000Z,46.1
2023-04-02T15:01:37.000Z,45.7
2023-04-02T15:02:53.000Z,44.8
2023-04-02T15:04:09.000Z,44.5
2023-04-02T15:05:25.000Z,43.7
2023-04-02T15:06:40.000Z,43.6
2023-04-02T15:07:56.000Z,41.7
2023-04-02T15:09:13.000Z,41.9
2023-04-02T15:10:29.000Z,43.9
2023-04-02T15:11:45.000Z,46.7
2023-04-02T15:13:01.000Z,46.6
2023-04-02T15:14:17.000Z,46
2023-04-02T15:15:34.000Z,48.6
2023-04-02T15:16:50.000Z,49.6
2023-04-02T15:18:06.000Z,48.9
2023-04-02T15:19:22.000Z,49
2023-04-02T15:20:38.000Z,47.5
2023-04-02T15:21:55.000Z,47.7
2023-04-02T15:23:10.000Z,47.1
2023-04-02T15:24:26.000Z,46.1
2023-04-02T15:25:42.000Z,45
2023-04-02T15:26:58.000Z,46.1
2023-04-02T15:28:15.000Z,48.2
2023-04-02T15:29:31.000Z,48.9
2023-04-02T15:30:47.000Z,47.5
2023-04-02T15:32:03.000Z,48
2023-04-02T15:33:19.000Z,47.4
2023-04-02T15:34:36.000Z,47.8
2023-04-02T15:35:52.000Z,48.5
2023-04-02T15:37:08.000Z,48.3
2023-04-02T15:38:24.000Z,48.9
2023-04-02T15:39:39.000Z,48.9
2023-04-02T15:40:55.000Z,48.8
2023-04-02T15:42:12.000Z,47.5
2023-04-02T15:43:28.000Z,46.9
2023-04-02T15:44:44.000Z,46.9
2023-04-02T15:46:00.000Z,46
2023-04-02T15:47:16.000Z,44.5
2023-04-02T15:48:33.000Z,44
2023-04-02T15:49:49.000Z,44
2023-04-02T15:51:05.000Z,46.8
2023-04-02T15:52:21.000Z,48.9
2023-04-02T15:53:37.000Z,49.7
2023-04-02T15:54:54.000Z,50.2
2023-04-02T15:56:09.000Z,49.5
2023-04-02T15:57:25.000Z,50.1
2023-04-02T15:58:41.000Z,47.8
2023-04-02T15:59:57.000Z,47.3
2023-04-02T16:01:14.000Z,48.5
2023-04-02T16:02:30.000Z,49.1
2023-04-02T16:03:46.000Z,48.3
2023-04-02T16:05:02.000Z,46
2023-04-02T16:06:18.000Z,46.4
2023-04-02T16:07:34.000Z,48.2
2023-04-02T16:08:51.144Z,48.5
2023-04-02T16:10:07.000Z,47.7
2023-04-02T16:11:23.000Z,45.5
2023-04-02T16:12:39.000Z,45.6
2023-04-02T16:13:54.000Z,46.7
2023-04-02T16:15:11.000Z,46.3
2023-04-02T16:16:27.000Z,47.1
2023-04-02T16:17:43.000Z,48.8
2023-04-02T16:18:59.000Z,47.5
2023-04-02T16:20:15.000Z,47.7
2023-04-02T16:21:32.000Z,47.9
2023-04-02T16:22:48.000Z,48.1
2023-04-02T16:24:04.000Z,47.4
2023-04-02T16:25:20.000Z,46.6
2023-04-02T16:26:36.000Z,45.2
2023-04-02T16:27:53.000Z,44.6
2023-04-02T16:29:09.000Z,45.9
2023-04-02T16:30:24.000Z,47.4
2023-04-02T16:31:40.000Z,47.6
2023-04-02T16:32:56.000Z,48.9
2023-04-02T16:34:13.000Z,48.8
2023-04-02T16:35:29.000Z,48.9
2023-04-02T16:36:44.000Z,49.1
2023-04-02T16:38:00.000Z,48
2023-04-02T16:39:16.000Z,48.8
2023-04-02T16:40:32.000Z,49
2023-04-02T16:41:49.000Z,48.6
2023-04-02T16:43:05.000Z,49.5
2023-04-02T16:44:21.000Z,50.4
2023-04-02T16:45:37.000Z,49.7
2023-04-02T16:46:53.000Z,50
2023-04-02T16:48:10.000Z,50.1
2023-04-02T16:49:26.000Z,49.5
2023-04-02T16:50:42.000Z,48.7
2023-04-02T16:51:58.000Z,49.1
2023-04-02T16:53:13.000Z,49.6
2023-04-02T16:54:30.000Z,50.4
2023-04-02T16:55:46.000Z,50.7
2023-04-02T16:57:02.000Z,50.6
2023-04-02T16:58:18.000Z,51.1
2023-04-02T16:59:34.000Z,51.6
2023-04-02T17:00:51.000Z,51.7
2023-04-02T17:02:07.000Z,52